createdAt,value
2022-07-30T00:03:58.956Z,100504.66
2022-07-30T00:09:01.588Z,100503.90
2022-07-30T00:14:04.138Z,100507.09
2022-07-30T00:19:07.037Z,100497.90
2022-07-30T00:24:10.732Z,100496.78
2022-07-30T00:29:13.549Z,100494.64
2022-07-30T00:34:15.993Z,100491.98
2022-07-30T00:39:18.434Z,100490.59
2022-07-30T00:44:20.863Z,100490.90
2022-07-30T00:49:24.376Z,100480.00
2022-07-30T00:54:26.823Z,100479.65
2022-07-30T00:59:29.215Z,100482.13
2022-07-30T01:04:31.629Z,100479.08
2022-07-30T01:09:34.045Z,100477.20
2022-07-30T01:14:38.412Z,100463.14
2022-07-30T01:19:49.036Z,100460.84
2022-07-30T01:25:06.362Z,100460.20
2022-07-30T01:30:10.345Z,100459.92
2022-07-30T01:35:14.442Z,100451.80
2022-07-30T01:40:17.117Z,100445.27
2022-07-30T01:45:19.863Z,100445.05
2022-07-30T01:50:23.013Z,100440.89
2022-07-30T01:55:30.420Z,100432.73
2022-07-30T02:00:36.690Z,100424.19
2022-07-30T02:05:43.013Z,100421.23
2022-07-30T02:10:52.409Z,100417.73
2022-07-30T02:16:06.255Z,100410.81
2022-07-30T02:21:11.560Z,100406.45
2022-07-30T02:26:20.841Z,100393.16
2022-07-30T02:31:27.011Z,100385.86
2022-07-30T02:36:32.527Z,100385.54
2022-07-30T02:41:38.880Z,100388.26
2022-07-30T02:46:42.034Z,100390.48
2022-07-30T02:51:47.482Z,100388.52
2022-07-30T02:56:51.229Z,100387.45
2022-07-30T03:01:54.666Z,100382.38
2022-07-30T03:06:59.243Z,100378.69
2022-07-30T03:12:03.170Z,100389.27
2022-07-30T03:17:07.753Z,100381.64
2022-07-30T03:22:11.013Z,100380.30
2022-07-30T03:27:15.157Z,100381.63
2022-07-30T03:32:18.530Z,100386.54
2022-07-30T03:37:21.411Z,100386.21
2022-07-30T03:42:24.462Z,100399.73
2022-07-30T03:47:27.501Z,100416.91
2022-07-30T03:52:32.784Z,100422.02
2022-07-30T03:57:35.826Z,100423.79
2022-07-30T04:02:45.566Z,100403.09
2022-07-30T04:07:48.856Z,100388.88
2022-07-30T04:12:51.271Z,100392.27
2022-07-30T04:17:58.665Z,100384.81
2022-07-30T04:23:02.648Z,100393.73
2022-07-30T04:28:05.650Z,100401.84
2022-07-30T04:33:08.396Z,100403.48
2022-07-30T04:38:11.612Z,100405.88
2022-07-30T04:43:14.381Z,100399.86
2022-07-30T04:48:16.776Z,100397.46
2022-07-30T04:53:19.813Z,100397.42
2022-07-30T04:58:23.483Z,100389.84
2022-07-30T05:03:26.441Z,100382.38
2022-07-30T05:08:29.834Z,100379.09
2022-07-30T05:13:34.421Z,100383.56
2022-07-30T05:18:40.798Z,100385.14
2022-07-30T05:23:50.246Z,100383.84
2022-07-30T05:28:56.790Z,100392.09
2022-07-30T05:34:03.034Z,100387.54
2022-07-30T05:39:06.107Z,100379.27
2022-07-30T05:44:08.754Z,100370.81
2022-07-30T05:49:11.174Z,100364.16
2022-07-30T05:54:13.666Z,100362.98
2022-07-30T05:59:16.165Z,100357.70
2022-07-30T06:04:18.579Z,100357.90
2022-07-30T06:09:27.335Z,100351.98
2022-07-30T06:14:39.137Z,100353.00
2022-07-30T06:19:41.554Z,100360.35
2022-07-30T06:24:44.037Z,100361.49
2022-07-30T06:29:46.475Z,100360.92
2022-07-30T06:34:53.327Z,100363.27
2022-07-30T06:39:59.707Z,100365.52
2022-07-30T06:45:02.168Z,100371.05
2022-07-30T06:50:05.190Z,100364.79
2022-07-30T06:55:08.104Z,100367.85
2022-07-30T07:00:10.892Z,100364.55
2022-07-30T07:05:13.620Z,100369.11
2022-07-30T07:10:16.271Z,100369.35
2022-07-30T07:15:18.738Z,100369.58
2022-07-30T07:20:24.915Z,100370.52
2022-07-30T07:25:27.612Z,100364.52
2022-07-30T07:30:30.434Z,100353.40
2022-07-30T07:35:33.513Z,100352.56
2022-07-30T07:40:51.040Z,100344.20
2022-07-30T07:45:53.491Z,100336.08
2022-07-30T07:51:00.160Z,100333.62
2022-07-30T07:56:03.390Z,100328.52
2022-07-30T08:01:06.737Z,100329.23
2022-07-30T08:06:14.889Z,100317.28
2022-07-30T08:11:17.724Z,100313.23
2022-07-30T08:16:20.297Z,100314.70
2022-07-30T08:21:22.798Z,100308.15
2022-07-30T08:26:25.261Z,100310.77
2022-07-30T08:31:27.816Z,100315.65
2022-07-30T08:36:30.202Z,100312.58
2022-07-30T08:41:32.621Z,100305.39
2022-07-30T08:46:36.555Z,100301.34
2022-07-30T08:51:39.881Z,100303.98
2022-07-30T08:56:42.977Z,100300.55
2022-07-30T09:01:45.630Z,100297.25
2022-07-30T09:06:49.860Z,100291.80
2022-07-30T09:11:52.253Z,100291.48
2022-07-30T09:16:57.687Z,100291.18
2022-07-30T09:22:01.581Z,100293.54
2022-07-30T09:27:07.696Z,100288.98
2022-07-30T09:32:10.199Z,100288.45
2022-07-30T09:37:12.788Z,100280.55
2022-07-30T09:42:21.488Z,100277.53
2022-07-30T09:47:50.285Z,100272.63
2022-07-30T09:52:54.148Z,100271.72
2022-07-30T09:58:04.668Z,100280.00
2022-07-30T10:03:34.234Z,100277.42
2022-07-30T10:08:51.849Z,100273.20
2022-07-30T10:13:56.410Z,100273.41
2022-07-30T10:19:00.048Z,100278.17
2022-07-30T10:24:35.236Z,100277.83
2022-07-30T10:29:42.578Z,100278.48
2022-07-30T10:34:45.601Z,100274.71
2022-07-30T10:39:55.258Z,100273.40
2022-07-30T10:45:08.171Z,100274.90
2022-07-30T10:50:26.286Z,100269.19
2022-07-30T10:55:32.946Z,100265.16
2022-07-30T11:00:59.892Z,100256.96
2022-07-30T11:06:24.478Z,100260.95
2022-07-30T11:12:04.989Z,100256.45
2022-07-30T11:16:52.946Z,100254.89
2022-07-30T11:22:28.751Z,100248.13
2022-07-30T11:27:45.755Z,100242.89
2022-07-30T11:32:51.533Z,100236.55
2022-07-30T11:38:15.664Z,100224.98
2022-07-30T11:43:35.838Z,100220.82
2022-07-30T11:48:41.777Z,100218.26
2022-07-30T11:53:45.766Z,100211.76
2022-07-30T11:58:48.332Z,100207.79
2022-07-30T12:03:50.861Z,100206.60
2022-07-30T12:08:58.241Z,100204.73
2022-07-30T12:14:02.438Z,100205.51
2022-07-30T12:19:06.205Z,100202.89
2022-07-30T12:24:09.853Z,100197.88
2022-07-30T12:29:15.592Z,100190.02
2022-07-30T12:34:25.965Z,100193.73
2022-07-30T12:39:28.529Z,100186.31
2022-07-30T12:44:35.007Z,100181.73
2022-07-30T12:49:48.987Z,100184.52
2022-07-30T12:55:08.824Z,100185.67
2022-07-30T13:00:11.712Z,100189.60
2022-07-30T13:05:14.409Z,100185.96
2022-07-30T13:10:18.685Z,100180.54
2022-07-30T13:15:22.310Z,100170.98
2022-07-30T13:20:24.841Z,100161.99
2022-07-30T13:25:27.202Z,100154.22
2022-07-30T13:30:41.605Z,100155.67
2022-07-30T13:35:44.109Z,100152.15
2022-07-30T13:40:46.861Z,100152.61
2022-07-30T13:45:50.880Z,100148.02
2022-07-30T13:50:53.320Z,100148.51
2022-07-30T13:55:56.106Z,100134.44
2022-07-30T14:00:58.495Z,100122.63
2022-07-30T14:06:10.949Z,100125.69
2022-07-30T14:11:14.274Z,100121.00
2022-07-30T14:16:42.416Z,100122.19
2022-07-30T14:21:40.264Z,100116.23
2022-07-30T14:26:43.760Z,100114.52
2022-07-30T14:31:46.237Z,100104.30
2022-07-30T14:36:48.644Z,100105.05
2022-07-30T14:41:55.764Z,100103.28
2022-07-30T14:46:58.684Z,100100.02
2022-07-30T14:52:01.176Z,100092.70
2022-07-30T14:57:04.091Z,100091.36
2022-07-30T15:02:10.904Z,100093.48
2022-07-30T15:07:13.517Z,100085.85
2022-07-30T15:12:23.377Z,100087.02
2022-07-30T15:17:26.657Z,100080.56
2022-07-30T15:22:29.034Z,100077.98
2022-07-30T15:27:34.022Z,100074.55
2022-07-30T15:32:37.109Z,100071.79
2022-07-30T15:37:40.935Z,100076.33
2022-07-30T15:42:44.128Z,100071.83
2022-07-30T15:47:46.745Z,100073.23
2022-07-30T15:52:49.458Z,100071.38
2022-07-30T15:57:52.298Z,100069.93
2022-07-30T16:02:56.163Z,100063.08
2022-07-30T16:07:58.540Z,100059.35
2022-07-30T16:13:00.970Z,100057.10
2022-07-30T16:18:04.412Z,100057.27
2022-07-30T16:23:12.170Z,100054.73
2022-07-30T16:28:16.463Z,100052.79
2022-07-30T16:33:20.061Z,100044.67
2022-07-30T16:38:25.148Z,100041.51
2022-07-30T16:43:27.631Z,100040.51
2022-07-30T16:48:32.488Z,100043.86
2022-07-30T16:53:34.949Z,100041.27
2022-07-30T16:58:37.541Z,100044.61
2022-07-30T17:03:40.053Z,100047.98
2022-07-30T17:08:42.509Z,100046.70
2022-07-30T17:13:46.869Z,100046.17
2022-07-30T17:18:49.296Z,100045.10
2022-07-30T17:23:51.922Z,100038.00
2022-07-30T17:28:54.299Z,100034.55
2022-07-30T17:33:56.950Z,100032.60
2022-07-30T17:38:59.289Z,100036.08
2022-07-30T17:44:01.954Z,100035.17
2022-07-30T17:49:11.236Z,100033.63
2022-07-30T17:54:13.664Z,100035.48
2022-07-30T17:59:16.351Z,100031.40
2022-07-30T18:04:18.775Z,100035.21
2022-07-30T18:09:21.199Z,100033.61
2022-07-30T18:14:26.386Z,100032.64
2022-07-30T18:19:28.914Z,100032.52
2022-07-30T18:24:31.672Z,100031.77
2022-07-30T18:29:34.070Z,100038.26
2022-07-30T18:34:36.737Z,100028.64
2022-07-30T18:39:39.164Z,100039.33
2022-07-30T18:44:41.658Z,100047.33
2022-07-30T18:49:44.383Z,100045.23
2022-07-30T18:54:48.236Z,100049.30
2022-07-30T18:59:50.618Z,100050.21
2022-07-30T19:04:53.646Z,100047.23
2022-07-30T19:09:57.922Z,100048.62
2022-07-30T19:15:01.107Z,100052.20
2022-07-30T19:20:08.109Z,100057.13
2022-07-30T19:25:11.153Z,100060.66
2022-07-30T19:30:14.266Z,100060.84
2022-07-30T19:35:16.787Z,100061.84
2022-07-30T19:40:19.225Z,100059.90
2022-07-30T19:45:22.477Z,100064.65
2022-07-30T19:50:27.214Z,100066.98
2022-07-30T19:55:35.059Z,100065.77
2022-07-30T20:00:38.306Z,100059.51
2022-07-30T20:05:58.433Z,100052.52
2022-07-30T20:11:03.377Z,100045.59
2022-07-30T20:16:11.769Z,100047.73
2022-07-30T20:21:16.306Z,100046.63
2022-07-30T20:26:19.281Z,100043.45
2022-07-30T20:31:22.552Z,100042.30
2022-07-30T20:36:24.950Z,100041.05
2022-07-30T20:41:27.344Z,100043.84
2022-07-30T20:46:31.809Z,100037.27
2022-07-30T20:51:34.833Z,100037.69
2022-07-30T20:56:38.296Z,100036.32
2022-07-30T21:01:40.792Z,100039.58
2022-07-30T21:06:47.412Z,100038.34
2022-07-30T21:11:51.846Z,100044.34
2022-07-30T21:16:56.317Z,100043.41
2022-07-30T21:21:58.973Z,100039.86
2022-07-30T21:27:01.748Z,100042.66
2022-07-30T21:32:04.387Z,100044.94
2022-07-30T21:37:07.495Z,100051.35
2022-07-30T21:42:10.683Z,100048.52
2022-07-30T21:47:13.405Z,100045.42
2022-07-30T21:52:15.900Z,100041.02
2022-07-30T21:57:26.538Z,100037.55
2022-07-30T22:02:32.670Z,100035.95
2022-07-30T22:07:35.023Z,100031.17
2022-07-30T22:12:38.602Z,100029.56
2022-07-30T22:17:58.695Z,100031.09
2022-07-30T22:23:04.637Z,100024.78
2022-07-30T22:28:07.263Z,100025.55
2022-07-30T22:33:16.478Z,100016.45
2022-07-30T22:38:19.735Z,100015.89
2022-07-30T22:43:23.047Z,100013.82
2022-07-30T22:48:35.623Z,100011.99
2022-07-30T22:54:11.174Z,100005.10
2022-07-30T22:59:00.698Z,100002.64
2022-07-30T23:04:03.152Z,100002.23
2022-07-30T23:09:05.628Z,100000.40
2022-07-30T23:14:10.152Z,100000.60
2022-07-30T23:19:21.526Z,100002.13
2022-07-30T23:24:24.675Z,100005.48
2022-07-30T23:29:28.337Z,100004.23
2022-07-30T23:34:31.148Z,100001.23
2022-07-30T23:39:33.684Z,99997.42
2022-07-30T23:44:37.257Z,99995.21
2022-07-30T23:49:39.754Z,99997.75
2022-07-30T23:54:42.167Z,99995.55
2022-07-30T23:59:44.620Z,99988.70
